sensor_id;sensor_type;location;lat;lon;timestamp;pressure;altitude;pressure_sealevel;temperature;humidity
31501;BME280;31032;49.512;10.892;2022-08-24T00:00:30;98097.66;;;17.56;95.30
31501;BME280;31032;49.512;10.892;2022-08-24T00:02:58;98099.31;;;17.57;94.42
31501;BME280;31032;49.512;10.892;2022-08-24T00:05:23;98097.31;;;17.67;94.51
31501;BME280;31032;49.512;10.892;2022-08-24T00:07:49;98091.84;;;17.77;93.11
31501;BME280;31032;49.512;10.892;2022-08-24T00:10:17;98097.28;;;17.83;93.80
31501;BME280;31032;49.512;10.892;2022-08-24T00:12:43;98099.59;;;17.86;92.32
31501;BME280;31032;49.512;10.892;2022-08-24T00:15:10;98096.28;;;17.92;93.32
31501;BME280;31032;49.512;10.892;2022-08-24T00:17:36;98101.53;;;17.92;91.02
31501;BME280;31032;49.512;10.892;2022-08-24T00:20:02;98101.22;;;17.95;91.20
31501;BME280;31032;49.512;10.892;2022-08-24T00:22:28;98101.25;;;17.79;91.88
31501;BME280;31032;49.512;10.892;2022-08-24T00:24:53;98104.91;;;17.62;93.63
31501;BME280;31032;49.512;10.892;2022-08-24T00:27:19;98096.66;;;17.41;95.34
31501;BME280;31032;49.512;10.892;2022-08-24T00:29:45;98103.94;;;17.55;94.14
31501;BME280;31032;49.512;10.892;2022-08-24T00:32:10;98115.78;;;17.59;93.99
31501;BME280;31032;49.512;10.892;2022-08-24T00:34:35;98109.84;;;17.57;94.45
31501;BME280;31032;49.512;10.892;2022-08-24T00:37:01;98110.81;;;17.48;95.42
31501;BME280;31032;49.512;10.892;2022-08-24T00:39:26;98108.50;;;17.29;96.45
31501;BME280;31032;49.512;10.892;2022-08-24T00:41:52;98106.84;;;17.20;97.13
31501;BME280;31032;49.512;10.892;2022-08-24T00:44:18;98104.88;;;17.46;95.26
31501;BME280;31032;49.512;10.892;2022-08-24T00:47:25;98104.06;;;17.54;93.10
31501;BME280;31032;49.512;10.892;2022-08-24T00:49:59;98101.94;;;17.49;93.96
31501;BME280;31032;49.512;10.892;2022-08-24T00:52:32;98097.97;;;17.37;93.54
31501;BME280;31032;49.512;10.892;2022-08-24T00:55:03;98102.56;;;17.43;93.76
31501;BME280;31032;49.512;10.892;2022-08-24T00:57:35;98100.94;;;17.50;93.00
31501;BME280;31032;49.512;10.892;2022-08-24T01:00:10;98101.59;;;17.36;93.83
31501;BME280;31032;49.512;10.892;2022-08-24T01:02:39;98105.19;;;17.35;94.88
31501;BME280;31032;49.512;10.892;2022-08-24T01:05:08;98107.63;;;16.96;96.69
31501;BME280;31032;49.512;10.892;2022-08-24T01:07:34;98109.78;;;16.93;97.42
31501;BME280;31032;49.512;10.892;2022-08-24T01:10:05;98109.75;;;16.85;97.56
31501;BME280;31032;49.512;10.892;2022-08-24T01:12:33;98102.50;;;16.79;97.87
31501;BME280;31032;49.512;10.892;2022-08-24T01:15:00;98108.75;;;16.78;98.55
31501;BME280;31032;49.512;10.892;2022-08-24T01:17:26;98107.75;;;16.71;99.42
31501;BME280;31032;49.512;10.892;2022-08-24T01:20:11;98106.16;;;16.86;98.10
31501;BME280;31032;49.512;10.892;2022-08-24T01:23:00;98099.25;;;16.85;97.99
31501;BME280;31032;49.512;10.892;2022-08-24T01:25:30;98103.53;;;16.86;97.00
31501;BME280;31032;49.512;10.892;2022-08-24T01:27:59;98105.41;;;16.60;98.99
31501;BME280;31032;49.512;10.892;2022-08-24T01:30:28;98102.69;;;16.77;98.00
31501;BME280;31032;49.512;10.892;2022-08-24T01:32:56;98101.00;;;16.76;96.53
31501;BME280;31032;49.512;10.892;2022-08-24T01:35:22;98100.59;;;16.97;94.29
31501;BME280;31032;49.512;10.892;2022-08-24T01:37:48;98103.34;;;16.87;94.51
31501;BME280;31032;49.512;10.892;2022-08-24T01:40:14;98098.53;;;16.59;96.56
31501;BME280;31032;49.512;10.892;2022-08-24T01:42:46;98100.16;;;16.60;97.60
31501;BME280;31032;49.512;10.892;2022-08-24T01:45:12;98096.84;;;16.50;99.27
31501;BME280;31032;49.512;10.892;2022-08-24T01:47:37;98097.53;;;16.18;100.00
31501;BME280;31032;49.512;10.892;2022-08-24T01:50:03;98109.50;;;16.20;100.00
31501;BME280;31032;49.512;10.892;2022-08-24T01:52:28;98108.19;;;16.24;100.00
31501;BME280;31032;49.512;10.892;2022-08-24T01:54:54;98111.13;;;16.13;100.00
31501;BME280;31032;49.512;10.892;2022-08-24T01:57:23;98108.78;;;16.10;100.00
31501;BME280;31032;49.512;10.892;2022-08-24T01:59:48;98112.84;;;16.31;100.00
31501;BME280;31032;49.512;10.892;2022-08-24T02:02:20;98104.47;;;16.01;100.00
31501;BME280;31032;49.512;10.892;2022-08-24T02:04:46;98109.50;;;16.20;100.00
31501;BME280;31032;49.512;10.892;2022-08-24T02:07:11;98101.91;;;16.09;100.00
31501;BME280;31032;49.512;10.892;2022-08-24T02:09:38;98116.03;;;16.08;100.00
31501;BME280;31032;49.512;10.892;2022-08-24T02:12:05;98116.09;;;15.99;100.00
31501;BME280;31032;49.512;10.892;2022-08-24T02:14:31;98112.75;;;15.81;100.00
31501;BME280;31032;49.512;10.892;2022-08-24T02:16:56;98109.50;;;15.87;100.00
31501;BME280;31032;49.512;10.892;2022-08-24T02:19:23;98114.97;;;16.01;100.00
31501;BME280;31032;49.512;10.892;2022-08-24T02:21:49;98115.31;;;15.98;100.00
31501;BME280;31032;49.512;10.892;2022-08-24T02:24:14;98111.72;;;16.07;100.00
31501;BME280;31032;49.512;10.892;2022-08-24T02:26:40;98106.81;;;16.12;100.00
31501;BME280;31032;49.512;10.892;2022-08-24T02:29:06;98115.75;;;16.19;100.00
31501;BME280;31032;49.512;10.892;2022-08-24T02:31:31;98115.03;;;16.09;100.00
31501;BME280;31032;49.512;10.892;2022-08-24T02:33:57;98115.31;;;15.98;100.00
31501;BME280;31032;49.512;10.892;2022-08-24T02:36:22;98109.06;;;15.99;100.00
31501;BME280;31032;49.512;10.892;2022-08-24T02:38:48;98112.69;;;15.98;100.00
31501;BME280;31032;49.512;10.892;2022-08-24T02:41:14;98115.88;;;15.84;100.00
31501;BME280;31032;49.512;10.892;2022-08-24T02:43:39;98116.13;;;15.73;100.00
31501;BME280;31032;49.512;10.892;2022-08-24T02:46:05;98119.72;;;15.72;100.00
31501;BME280;31032;49.512;10.892;2022-08-24T02:48:30;98118.09;;;15.71;100.00
31501;BME280;31032;49.512;10.892;2022-08-24T02:50:56;98118.59;;;16.00;100.00
31501;BME280;31032;49.512;10.892;2022-08-24T02:53:21;98119.22;;;15.94;100.00
31501;BME280;31032;49.512;10.892;2022-08-24T02:55:47;98117.56;;;15.93;100.00
31501;BME280;31032;49.512;10.892;2022-08-24T02:58:13;98120.56;;;15.98;100.00
31501;BME280;31032;49.512;10.892;2022-08-24T03:00:40;98117.97;;;16.06;99.42
31501;BME280;31032;49.512;10.892;2022-08-24T03:03:06;98109.72;;;16.01;100.00
31501;BME280;31032;49.512;10.892;2022-08-24T03:05:33;98110.56;;;16.02;100.00
31501;BME280;31032;49.512;10.892;2022-08-24T03:07:59;98116.09;;;15.99;100.00
31501;BME280;31032;49.512;10.892;2022-08-24T03:10:24;98119.84;;;15.88;100.00
31501;BME280;31032;49.512;10.892;2022-08-24T03:12:50;98119.66;;;15.90;100.00
31501;BME280;31032;49.512;10.892;2022-08-24T03:15:17;98113.91;;;15.86;100.00
31501;BME280;31032;49.512;10.892;2022-08-24T03:17:42;98115.31;;;15.73;100.00
31501;BME280;31032;49.512;10.892;2022-08-24T03:20:12;98118.75;;;15.73;100.00
31501;BME280;31032;49.512;10.892;2022-08-24T03:22:38;98122.00;;;15.67;100.00
31501;BME280;31032;49.512;10.892;2022-08-24T03:25:05;98111.84;;;15.72;100.00
31501;BME280;31032;49.512;10.892;2022-08-24T03:27:30;98108.56;;;15.70;100.00
31501;BME280;31032;49.512;10.892;2022-08-24T03:29:56;98103.97;;;15.72;100.00
31501;BME280;31032;49.512;10.892;2022-08-24T03:32:21;98099.28;;;15.58;100.00
31501;BME280;31032;49.512;10.892;2022-08-24T03:34:46;98109.13;;;15.56;100.00
31501;BME280;31032;49.512;10.892;2022-08-24T03:37:11;98105.75;;;15.64;100.00
31501;BME280;31032;49.512;10.892;2022-08-24T03:39:37;98105.53;;;15.57;100.00
31501;BME280;31032;49.512;10.892;2022-08-24T03:42:03;98107.16;;;15.58;100.00
31501;BME280;31032;49.512;10.892;2022-08-24T03:44:29;98110.16;;;15.63;100.00
31501;BME280;31032;49.512;10.892;2022-08-24T03:46:54;98108.50;;;15.62;100.00
31501;BME280;31032;49.512;10.892;2022-08-24T03:49:20;98114.38;;;15.56;100.00
31501;BME280;31032;49.512;10.892;2022-08-24T03:51:46;98109.88;;;15.31;100.00
31501;BME280;31032;49.512;10.892;2022-08-24T03:54:12;98114.91;;;15.24;100.00
31501;BME280;31032;49.512;10.892;2022-08-24T03:56:38;98123.81;;;15.49;100.00
31501;BME280;31032;49.512;10.892;2022-08-24T03:59:04;98117.34;;;15.61;99.92
31501;BME280;31032;49.512;10.892;2022-08-24T04:01:30;98124.88;;;15.56;100.00
31501;BME280;31032;49.512;10.892;2022-08-24T04:03:56;98117.53;;;15.42;100.00
31501;BME280;31032;49.512;10.892;2022-08-24T04:06:21;98125.16;;;15.53;100.00
31501;BME280;31032;49.512;10.892;2022-08-24T04:08:47;98135.34;;;15.38;100.00
31501;BME280;31032;49.512;10.892;2022-08-24T04:11:15;98134.44;;;15.30;100.00
31501;BME280;31032;49.512;10.892;2022-08-24T04:13:42;98134.00;;;15.17;100.00
31501;BME280;31032;49.512;10.892;2022-08-24T04:16:11;98145.09;;;15.11;100.00
31501;BME280;31032;49.512;10.892;2022-08-24T04:18:37;98138.06;;;14.94;100.00
31501;BME280;31032;49.512;10.892;2022-08-24T04:21:03;98140.22;;;14.98;100.00
31501;BME280;31032;49.512;10.892;2022-08-24T04:23:28;98139.09;;;15.01;100.00
31501;BME280;31032;49.512;10.892;2022-08-24T04:25:54;98138.75;;;15.13;100.00
31501;BME280;31032;49.512;10.892;2022-08-24T04:28:20;98146.59;;;15.13;100.00
31501;BME280;31032;49.512;10.892;2022-08-24T04:30:47;98148.69;;;15.10;100.00
31501;BME280;31032;49.512;10.892;2022-08-24T04:33:17;98150.34;;;15.11;100.00
31501;BME280;31032;49.512;10.892;2022-08-24T04:35:45;98148.41;;;15.13;100.00
31501;BME280;31032;49.512;10.892;2022-08-24T04:38:13;98153.38;;;14.89;100.00
31501;BME280;31032;49.512;10.892;2022-08-24T04:40:40;98151.66;;;14.80;100.00
31501;BME280;31032;49.512;10.892;2022-08-24T04:43:06;98158.50;;;14.90;100.00
31501;BME280;31032;49.512;10.892;2022-08-24T04:45:31;98158.50;;;14.90;100.00
31501;BME280;31032;49.512;10.892;2022-08-24T04:47:58;98167.25;;;14.99;100.00
31501;BME280;31032;49.512;10.892;2022-08-24T04:50:24;98166.25;;;14.82;100.00
31501;BME280;31032;49.512;10.892;2022-08-24T04:52:49;98165.69;;;14.88;100.00
31501;BME280;31032;49.512;10.892;2022-08-24T04:55:14;98165.97;;;15.03;100.00
31501;BME280;31032;49.512;10.892;2022-08-24T04:57:40;98174.09;;;15.09;100.00
31501;BME280;31032;49.512;10.892;2022-08-24T05:00:06;98172.66;;;15.15;100.00
31501;BME280;31032;49.512;10.892;2022-08-24T05:02:33;98173.31;;;14.99;100.00
31501;BME280;31032;49.512;10.892;2022-08-24T05:04:58;98178.81;;;15.06;100.00
31501;BME280;31032;49.512;10.892;2022-08-24T05:07:24;98176.13;;;15.15;100.00
31501;BME280;31032;49.512;10.892;2022-08-24T05:09:49;98187.81;;;15.21;100.00
31501;BME280;31032;49.512;10.892;2022-08-24T05:12:15;98187.28;;;15.17;100.00
31501;BME280;31032;49.512;10.892;2022-08-24T05:14:40;98179.34;;;15.09;100.00
31501;BME280;31032;49.512;10.892;2022-08-24T05:17:05;98184.13;;;15.31;100.00
31501;BME280;31032;49.512;10.892;2022-08-24T05:19:31;98179.78;;;15.22;100.00
31501;BME280;31032;49.512;10.892;2022-08-24T05:21:56;98188.59;;;15.21;100.00
31501;BME280;31032;49.512;10.892;2022-08-24T05:24:22;98180.81;;;15.29;100.00
31501;BME280;31032;49.512;10.892;2022-08-24T05:26:47;98183.91;;;15.25;100.00
31501;BME280;31032;49.512;10.892;2022-08-24T05:29:12;98189.16;;;15.25;100.00
31501;BME280;31032;49.512;10.892;2022-08-24T05:31:42;98185.25;;;15.29;100.00
31501;BME280;31032;49.512;10.892;2022-08-24T05:34:07;98188.72;;;15.47;100.00
31501;BME280;31032;49.512;10.892;2022-08-24T05:36:35;98182.88;;;15.53;100.00
31501;BME280;31032;49.512;10.892;2022-08-24T05:39:05;98182.03;;;15.70;100.00
31501;BME280;31032;49.512;10.892;2022-08-24T05:41:30;98187.06;;;15.81;100.00
31501;BME280;31032;49.512;10.892;2022-08-24T05:43:56;98196.97;;;15.95;100.00
31501;BME280;31032;49.512;10.892;2022-08-24T05:46:21;98197.38;;;16.00;100.00
31501;BME280;31032;49.512;10.892;2022-08-24T05:48:47;98189.38;;;16.10;100.00
31501;BME280;31032;49.512;10.892;2022-08-24T05:51:12;98189.44;;;16.18;100.00
31501;BME280;31032;49.512;10.892;2022-08-24T05:53:39;98189.34;;;16.27;100.00
31501;BME280;31032;49.512;10.892;2022-08-24T05:56:06;98190.00;;;16.38;100.00
31501;BME280;31032;49.512;10.892;2022-08-24T05:58:32;98200.81;;;16.52;100.00
31501;BME280;31032;49.512;10.892;2022-08-24T06:00:58;98202.97;;;16.57;100.00
31501;BME280;31032;49.512;10.892;2022-08-24T06:03:25;98204.66;;;16.66;100.00
31501;BME280;31032;49.512;10.892;2022-08-24T06:05:50;98205.50;;;16.74;100.00
31501;BME280;31032;49.512;10.892;2022-08-24T06:08:17;98203.28;;;16.87;100.00
31501;BME280;31032;49.512;10.892;2022-08-24T06:10:44;98205.09;;;16.95;100.00
31501;BME280;31032;49.512;10.892;2022-08-24T06:13:11;98213.31;;;17.00;100.00
31501;BME280;31032;49.512;10.892;2022-08-24T06:15:37;98202.66;;;17.09;100.00
31501;BME280;31032;49.512;10.892;2022-08-24T06:18:04;98201.53;;;17.12;100.00
31501;BME280;31032;49.512;10.892;2022-08-24T06:20:30;98199.94;;;17.35;100.00
31501;BME280;31032;49.512;10.892;2022-08-24T06:22:56;98202.41;;;17.45;100.00
31501;BME280;31032;49.512;10.892;2022-08-24T06:25:21;98209.22;;;17.55;100.00
31501;BME280;31032;49.512;10.892;2022-08-24T06:28:05;98200.16;;;17.66;100.00
31501;BME280;31032;49.512;10.892;2022-08-24T06:30:30;98206.91;;;17.76;100.00
31501;BME280;31032;49.512;10.892;2022-08-24T06:33:01;98202.31;;;17.86;100.00
31501;BME280;31032;49.512;10.892;2022-08-24T06:35:26;98205.75;;;17.95;100.00
31501;BME280;31032;49.512;10.892;2022-08-24T06:37:52;98209.16;;;18.20;100.00
31501;BME280;31032;49.512;10.892;2022-08-24T06:40:17;98203.88;;;18.20;100.00
31501;BME280;31032;49.512;10.892;2022-08-24T06:42:44;98212.44;;;18.38;100.00
31501;BME280;31032;49.512;10.892;2022-08-24T06:45:10;98208.47;;;18.42;100.00
31501;BME280;31032;49.512;10.892;2022-08-24T06:47:35;98207.19;;;18.46;99.97
31501;BME280;31032;49.512;10.892;2022-08-24T06:50:01;98212.06;;;18.65;98.80
31501;BME280;31032;49.512;10.892;2022-08-24T06:52:26;98216.00;;;18.69;99.06
31501;BME280;31032;49.512;10.892;2022-08-24T06:54:51;98215.16;;;18.76;98.06
31501;BME280;31032;49.512;10.892;2022-08-24T06:57:17;98217.53;;;18.94;97.30
31501;BME280;31032;49.512;10.892;2022-08-24T06:59:42;98225.44;;;19.02;96.58
31501;BME280;31032;49.512;10.892;2022-08-24T07:02:08;98222.44;;;19.05;96.50
31501;BME280;31032;49.512;10.892;2022-08-24T07:04:34;98223.41;;;19.12;96.56
31501;BME280;31032;49.512;10.892;2022-08-24T07:06:59;98231.47;;;19.11;96.69
31501;BME280;31032;49.512;10.892;2022-08-24T07:09:25;98229.00;;;19.09;97.24
31501;BME280;31032;49.512;10.892;2022-08-24T07:11:51;98229.25;;;19.22;97.19
31501;BME280;31032;49.512;10.892;2022-08-24T07:14:17;98228.25;;;19.31;95.15
31501;BME280;31032;49.512;10.892;2022-08-24T07:16:44;98232.50;;;19.40;95.19
31501;BME280;31032;49.512;10.892;2022-08-24T07:19:09;98229.34;;;19.67;92.93
31501;BME280;31032;49.512;10.892;2022-08-24T07:21:34;98230.50;;;19.65;94.08
31501;BME280;31032;49.512;10.892;2022-08-24T07:24:00;98221.78;;;19.87;92.30
31501;BME280;31032;49.512;10.892;2022-08-24T07:26:27;98222.16;;;19.99;91.56
31501;BME280;31032;49.512;10.892;2022-08-24T07:29:02;98227.03;;;20.10;91.48
31501;BME280;31032;49.512;10.892;2022-08-24T07:31:32;98232.94;;;20.12;90.44
31501;BME280;31032;49.512;10.892;2022-08-24T07:33:58;98220.09;;;20.09;90.51
31501;BME280;31032;49.512;10.892;2022-08-24T07:36:23;98224.31;;;20.18;90.71
31501;BME280;31032;49.512;10.892;2022-08-24T07:38:52;98216.97;;;20.28;90.23
31501;BME280;31032;49.512;10.892;2022-08-24T07:41:18;98217.88;;;20.35;89.87
31501;BME280;31032;49.512;10.892;2022-08-24T07:43:45;98222.38;;;20.78;88.47
31501;BME280;31032;49.512;10.892;2022-08-24T07:46:11;98221.91;;;20.89;88.07
31501;BME280;31032;49.512;10.892;2022-08-24T07:48:37;98229.94;;;21.10;86.72
31501;BME280;31032;49.512;10.892;2022-08-24T07:51:14;98227.50;;;20.94;86.35
31501;BME280;31032;49.512;10.892;2022-08-24T07:53:41;98230.88;;;20.88;85.98
31501;BME280;31032;49.512;10.892;2022-08-24T07:56:06;98227.75;;;20.99;86.24
31501;BME280;31032;49.512;10.892;2022-08-24T07:58:32;98230.47;;;20.91;86.69
31501;BME280;31032;49.512;10.892;2022-08-24T08:00:58;98227.56;;;21.15;85.29
31501;BME280;31032;49.512;10.892;2022-08-24T08:03:24;98228.41;;;21.37;84.83
31501;BME280;31032;49.512;10.892;2022-08-24T08:05:58;98225.28;;;21.48;83.44
31501;BME280;31032;49.512;10.892;2022-08-24T08:08:25;98231.34;;;21.63;82.83
31501;BME280;31032;49.512;10.892;2022-08-24T08:10:50;98235.63;;;21.64;82.91
31501;BME280;31032;49.512;10.892;2022-08-24T08:13:16;98229.25;;;21.80;81.29
31501;BME280;31032;49.512;10.892;2022-08-24T08:15:43;98225.97;;;21.78;81.21
31501;BME280;31032;49.512;10.892;2022-08-24T08:18:09;98215.88;;;21.67;81.94
31501;BME280;31032;49.512;10.892;2022-08-24T08:20:36;98224.38;;;21.98;81.61
31501;BME280;31032;49.512;10.892;2022-08-24T08:23:01;98231.09;;;22.21;79.82
31501;BME280;31032;49.512;10.892;2022-08-24T08:25:53;98226.69;;;22.07;80.85
31501;BME280;31032;49.512;10.892;2022-08-24T08:28:20;98227.53;;;22.08;80.97
31501;BME280;31032;49.512;10.892;2022-08-24T08:30:45;98226.59;;;22.50;78.40
31501;BME280;31032;49.512;10.892;2022-08-24T08:33:11;98229.88;;;22.52;79.19
31501;BME280;31032;49.512;10.892;2022-08-24T08:35:38;98234.63;;;22.90;76.19
31501;BME280;31032;49.512;10.892;2022-08-24T08:38:05;98232.06;;;23.03;76.12
31501;BME280;31032;49.512;10.892;2022-08-24T08:40:48;98231.69;;;23.19;75.66
31501;BME280;31032;49.512;10.892;2022-08-24T08:43:39;98226.09;;;23.49;73.49
31501;BME280;31032;49.512;10.892;2022-08-24T08:46:38;98228.78;;;23.68;71.90
31501;BME280;31032;49.512;10.892;2022-08-24T09:00:30;98219.66;;;24.36;69.37
31501;BME280;31032;49.512;10.892;2022-08-24T09:11:53;98217.56;;;24.77;66.21
31501;BME280;31032;49.512;10.892;2022-08-24T09:23:14;98209.00;;;25.20;64.63
31501;BME280;31032;49.512;10.892;2022-08-24T09:28:42;98203.81;;;25.31;64.37
31501;BME280;31032;49.512;10.892;2022-08-24T09:36:52;98192.38;;;25.62;63.09
31501;BME280;31032;49.512;10.892;2022-08-24T09:39:35;98195.00;;;25.68;62.91
31501;BME280;31032;49.512;10.892;2022-08-24T09:54:12;98192.06;;;25.76;61.82
31501;BME280;31032;49.512;10.892;2022-08-24T09:56:39;98185.00;;;25.88;61.59
31501;BME280;31032;49.512;10.892;2022-08-24T09:59:26;98186.53;;;26.09;61.07
31501;BME280;31032;49.512;10.892;2022-08-24T10:02:19;98188.66;;;25.32;62.12
31501;BME280;31032;49.512;10.892;2022-08-24T10:04:51;98175.06;;;25.40;62.17
31501;BME280;31032;49.512;10.892;2022-08-24T10:15:16;98176.66;;;25.78;61.84
31501;BME280;31032;49.512;10.892;2022-08-24T10:29:10;98167.66;;;25.48;63.64
31501;BME280;31032;49.512;10.892;2022-08-24T10:31:47;98169.31;;;25.99;62.24
31501;BME280;31032;49.512;10.892;2022-08-24T10:37:00;98158.09;;;26.57;59.38
31501;BME280;31032;49.512;10.892;2022-08-24T10:48:01;98162.94;;;27.03;56.28
31501;BME280;31032;49.512;10.892;2022-08-24T10:50:58;98153.41;;;26.35;57.54
31501;BME280;31032;49.512;10.892;2022-08-24T10:53:33;98157.03;;;26.40;58.35
31501;BME280;31032;49.512;10.892;2022-08-24T10:56:14;98143.69;;;26.58;58.33
31501;BME280;31032;49.512;10.892;2022-08-24T10:58:51;98142.44;;;26.61;57.82
31501;BME280;31032;49.512;10.892;2022-08-24T11:01:30;98133.47;;;26.55;56.65
31501;BME280;31032;49.512;10.892;2022-08-24T11:03:58;98144.34;;;26.78;56.26
31501;BME280;31032;49.512;10.892;2022-08-24T11:06:28;98145.34;;;26.77;56.13
31501;BME280;31032;49.512;10.892;2022-08-24T11:09:13;98141.66;;;26.78;57.74
31501;BME280;31032;49.512;10.892;2022-08-24T11:11:47;98137.34;;;26.77;56.72
31501;BME280;31032;49.512;10.892;2022-08-24T11:14:27;98146.81;;;27.10;56.86
31501;BME280;31032;49.512;10.892;2022-08-24T11:17:13;98150.97;;;27.65;53.95
31501;BME280;31032;49.512;10.892;2022-08-24T11:19:38;98149.00;;;27.72;54.61
31501;BME280;31032;49.512;10.892;2022-08-24T11:22:30;98142.13;;;27.76;52.18
31501;BME280;31032;49.512;10.892;2022-08-24T11:25:02;98153.25;;;27.50;53.50
31501;BME280;31032;49.512;10.892;2022-08-24T11:27:33;98135.75;;;27.77;53.70
31501;BME280;31032;49.512;10.892;2022-08-24T11:30:04;98143.56;;;27.90;51.93
31501;BME280;31032;49.512;10.892;2022-08-24T11:32:39;98131.72;;;28.32;52.87
31501;BME280;31032;49.512;10.892;2022-08-24T11:35:27;98133.81;;;28.30;52.68
31501;BME280;31032;49.512;10.892;2022-08-24T11:37:54;98127.66;;;28.41;52.73
31501;BME280;31032;49.512;10.892;2022-08-24T11:40:24;98127.09;;;28.16;51.29
31501;BME280;31032;49.512;10.892;2022-08-24T11:45:40;98130.09;;;28.55;50.76
31501;BME280;31032;49.512;10.892;2022-08-24T11:48:23;98135.06;;;28.74;50.50
31501;BME280;31032;49.512;10.892;2022-08-24T11:51:16;98131.00;;;29.00;50.34
31501;BME280;31032;49.512;10.892;2022-08-24T11:56:45;98129.34;;;29.10;48.01
31501;BME280;31032;49.512;10.892;2022-08-24T12:01:56;98143.56;;;29.22;48.01
31501;BME280;31032;49.512;10.892;2022-08-24T12:04:48;98128.25;;;29.23;47.94
31501;BME280;31032;49.512;10.892;2022-08-24T12:09:59;98130.53;;;29.14;49.29
31501;BME280;31032;49.512;10.892;2022-08-24T12:12:35;98133.53;;;28.78;48.91
31501;BME280;31032;49.512;10.892;2022-08-24T12:15:10;98117.03;;;27.89;50.42
31501;BME280;31032;49.512;10.892;2022-08-24T12:17:47;98128.00;;;28.10;51.22
31501;BME280;31032;49.512;10.892;2022-08-24T12:20:36;98128.91;;;27.81;52.00
31501;BME280;31032;49.512;10.892;2022-08-24T12:23:07;98125.38;;;27.69;51.75
31501;BME280;31032;49.512;10.892;2022-08-24T12:25:35;98122.44;;;27.59;51.20
31501;BME280;31032;49.512;10.892;2022-08-24T12:28:23;98121.13;;;27.38;52.43
31501;BME280;31032;49.512;10.892;2022-08-24T12:30:52;98119.53;;;27.19;53.94
31501;BME280;31032;49.512;10.892;2022-08-24T12:33:24;98123.47;;;27.17;53.24
31501;BME280;31032;49.512;10.892;2022-08-24T12:35:54;98118.69;;;27.37;53.51
31501;BME280;31032;49.512;10.892;2022-08-24T12:38:34;98122.53;;;27.41;52.26
31501;BME280;31032;49.512;10.892;2022-08-24T12:41:25;98127.66;;;27.42;52.16
31501;BME280;31032;49.512;10.892;2022-08-24T12:44:03;98115.06;;;27.43;52.11
31501;BME280;31032;49.512;10.892;2022-08-24T12:46:40;98117.44;;;27.51;52.67
31501;BME280;31032;49.512;10.892;2022-08-24T12:52:07;98105.97;;;27.85;51.75
31501;BME280;31032;49.512;10.892;2022-08-24T12:57:32;98101.44;;;27.97;50.40
31501;BME280;31032;49.512;10.892;2022-08-24T13:00:11;98103.63;;;28.58;49.54
31501;BME280;31032;49.512;10.892;2022-08-24T13:02:41;98103.78;;;28.91;48.38
31501;BME280;31032;49.512;10.892;2022-08-24T13:05:17;98103.22;;;29.06;49.17
31501;BME280;31032;49.512;10.892;2022-08-24T13:07:49;98100.00;;;29.32;48.57
31501;BME280;31032;49.512;10.892;2022-08-24T13:10:39;98098.22;;;29.54;47.47
31501;BME280;31032;49.512;10.892;2022-08-24T13:13:12;98096.66;;;29.86;46.27
31501;BME280;31032;49.512;10.892;2022-08-24T13:15:49;98100.88;;;29.82;44.55
31501;BME280;31032;49.512;10.892;2022-08-24T13:28:09;98092.97;;;28.75;46.93
31501;BME280;31032;49.512;10.892;2022-08-24T13:30:56;98088.50;;;28.92;47.34
31501;BME280;31032;49.512;10.892;2022-08-24T13:41:36;98085.91;;;28.45;48.54
31501;BME280;31032;49.512;10.892;2022-08-24T13:44:08;98097.34;;;28.52;48.40
31501;BME280;31032;49.512;10.892;2022-08-24T13:57:50;98083.06;;;28.12;49.66
31501;BME280;31032;49.512;10.892;2022-08-24T14:03:09;98080.34;;;28.87;48.70
31501;BME280;31032;49.512;10.892;2022-08-24T14:11:21;98075.47;;;28.84;47.96
31501;BME280;31032;49.512;10.892;2022-08-24T14:17:07;98073.19;;;28.76;47.84
31501;BME280;31032;49.512;10.892;2022-08-24T14:20:05;98083.84;;;28.87;48.03
31501;BME280;31032;49.512;10.892;2022-08-24T14:23:05;98082.78;;;28.48;49.00
31501;BME280;31032;49.512;10.892;2022-08-24T14:25:34;98073.94;;;28.36;48.92
31501;BME280;31032;49.512;10.892;2022-08-24T14:46:54;98065.28;;;30.47;43.45
31501;BME280;31032;49.512;10.892;2022-08-24T14:49:28;98063.72;;;30.51;43.49
31501;BME280;31032;49.512;10.892;2022-08-24T14:57:25;98066.28;;;30.84;41.98
31501;BME280;31032;49.512;10.892;2022-08-24T15:07:58;98054.00;;;29.40;45.26
31501;BME280;31032;49.512;10.892;2022-08-24T15:10:31;98058.44;;;29.18;45.96
31501;BME280;31032;49.512;10.892;2022-08-24T15:13:01;98053.59;;;29.03;46.51
31501;BME280;31032;49.512;10.892;2022-08-24T15:15:36;98049.97;;;28.81;47.24
31501;BME280;31032;49.512;10.892;2022-08-24T15:20:45;98049.09;;;28.64;47.27
31501;BME280;31032;49.512;10.892;2022-08-24T15:23:26;98042.25;;;28.57;47.42
31501;BME280;31032;49.512;10.892;2022-08-24T15:26:01;98045.97;;;29.12;47.47
31501;BME280;31032;49.512;10.892;2022-08-24T15:28:31;98035.84;;;29.14;46.99
31501;BME280;31032;49.512;10.892;2022-08-24T15:31:09;98036.91;;;29.13;47.14
31501;BME280;31032;49.512;10.892;2022-08-24T15:33:51;98042.97;;;28.80;46.78
31501;BME280;31032;49.512;10.892;2022-08-24T15:36:17;98039.56;;;28.57;47.94
31501;BME280;31032;49.512;10.892;2022-08-24T15:38:44;98043.75;;;28.64;48.35
31501;BME280;31032;49.512;10.892;2022-08-24T15:41:17;98034.78;;;28.87;47.66
31501;BME280;31032;49.512;10.892;2022-08-24T15:43:46;98045.38;;;30.91;44.00
31501;BME280;31032;49.512;10.892;2022-08-24T15:46:17;98057.59;;;33.22;39.52
31501;BME280;31032;49.512;10.892;2022-08-24T15:48:44;98059.97;;;36.09;36.38
31501;BME280;31032;49.512;10.892;2022-08-24T15:51:16;98055.56;;;38.05;33.11